This is the latest recevied weather packets stored in our database for station/object KC8BSD. If no packets are shown the sender has not sent any weather packets the latest 1 day(s).
| Time | Temp. | Humidity | Pressure | Rain* | Wind** | Luminosity | Snow |
|---|---|---|---|---|---|---|---|
| 1777994757 | 12.22° C | 73% | 1008.4 hPa | 0 mm | 0.45 m/s, 315° | 124 W/m² | - |
| 1777994453 | 12.22° C | 72% | 1008.3 hPa | 0 mm | 0 m/s | 107 W/m² | - |
| 1777994148 | 12.22° C | 68% | 1008.3 hPa | 0 mm | 0.89 m/s, 49° | 122 W/m² | - |
| 1777993846 | 12.22° C | 67% | 1008.1 hPa | 0 mm | 0.45 m/s, 58° | 102 W/m² | - |
| 1777993542 | 12.78° C | 66% | 1007.9 hPa | 0 mm | 1.79 m/s, 32° | 72 W/m² | - |
| 1777993238 | 12.78° C | 65% | 1007.8 hPa | 0 mm | 1.34 m/s, 52° | 101 W/m² | - |
| 1777992935 | 12.78° C | 67% | 1007.7 hPa | 0 mm | 0.45 m/s, 39° | 115 W/m² | - |
| 1777992633 | 12.78° C | 67% | 1007.7 hPa | 0 mm | 0.89 m/s, 346° | 112 W/m² | - |
| 1777992331 | 12.78° C | 66% | 1007.5 hPa | 0 mm | 0.89 m/s, 344° | 112 W/m² | - |
| 1777992028 | 12.78° C | 65% | 1007.7 hPa | 0 mm | 0.45 m/s, 59° | 116 W/m² | - |
| 1777991725 | 12.78° C | 64% | 1007.4 hPa | 0 mm | 0.89 m/s, 265° | 80 W/m² | - |
| 1777991422 | 12.78° C | 64% | 1007.4 hPa | 0 mm | 0.89 m/s, 351° | 115 W/m² | - |
| 1777991120 | 13.33° C | 65% | 1007.1 hPa | 0 mm | 0 m/s | 133 W/m² | - |
| 1777990817 | 13.33° C | 63% | 1007.4 hPa | 0 mm | 0.45 m/s, 262° | 124 W/m² | - |
| 1777990514 | 13.89° C | 63% | 1007.6 hPa | 0 mm | 0.45 m/s, 269° | 131 W/m² | - |
| 1777990211 | 13.33° C | 64% | 1007.3 hPa | 0 mm | 0 m/s | 161 W/m² | - |
| 1777989908 | 13.33° C | 63% | 1007.2 hPa | 0 mm | 0.45 m/s, 310° | 188 W/m² | - |
| 1777989604 | 13.89° C | 62% | 1007.3 hPa | 0 mm | 1.34 m/s, 38° | 147 W/m² | - |
| 1777989301 | 13.89° C | 62% | 1007.2 hPa | 0 mm | 0.89 m/s, 28° | 188 W/m² | - |
| 1777988997 | 13.33° C | 62% | 1006.9 hPa | 0 mm | 0.89 m/s, 347° | 201 W/m² | - |
| 1777988693 | 13.89° C | 61% | 1007.1 hPa | 0 mm | 1.34 m/s, 11° | 144 W/m² | - |
| 1777988390 | 13.89° C | 60% | 1006.9 hPa | 0 mm | 2.24 m/s, 43° | 167 W/m² | - |
| 1777988088 | 14.44° C | 60% | 1006.7 hPa | 0 mm | 0.45 m/s, 321° | 166 W/m² | - |
| 1777987783 | 14.44° C | 59% | 1006.4 hPa | 0 mm | 2.24 m/s, 44° | 196 W/m² | - |
| 1777987480 | 14.44° C | 59% | 1006.5 hPa | 0 mm | 0.89 m/s, 1° | 277 W/m² | - |
* Rain latest hour (hover to see other rain measurements)
** Current wind speed in m/s (hover to see current wind gust speed)